Time;durP1;ratioP1;P1;durP2;ratioP2;P2;SDS_P1;SDS_P2;PMS_P1;PMS_P2;Temp;Humidity;BMP_temperature;BMP_pressure;BME280_temperature;BME280_humidity;BME280_pressure;Samples;Min_cycle;Max_cycle;Signal;HPM_P1;HPM_P2
2023/07/06 08:44:21;;;;;;;;;5.00;4.80;;;;;28.57;34.31;101462.75;4949523;28;45515;-68
2023/07/06 08:46:50;;;;;;;;;9.00;6.75;;;;;28.63;35.07;101465.22;4958444;28;45375;-69
2023/07/06 08:49:29;;;;;;;;;8.00;5.00;;;;;28.82;35.00;101470.78;4959829;28;45254;-69
2023/07/06 08:51:55;;;;;;;;;3.00;3.00;;;;;28.92;35.25;101454.94;4959194;28;45536;-69
2023/07/06 08:54:23;;;;;;;;;3.40;3.00;;;;;29.24;33.22;101464.53;4953694;28;45346;-69
2023/07/06 08:56:50;;;;;;;;;7.00;5.50;;;;;29.42;33.44;101466.44;4959123;28;45524;-69
2023/07/06 08:59:39;;;;;;;;;7.00;5.00;;;;;29.49;34.69;101447.97;4937696;28;46188;-70
2023/07/06 09:02:25;;;;;;;;;6.40;4.20;;;;;29.83;36.27;101471.91;4959309;28;45445;-69
2023/07/06 09:04:52;;;;;;;;;6.60;5.00;;;;;29.99;32.59;101469.34;4946111;28;45304;-70
2023/07/06 09:07:21;;;;;;;;;5.80;4.20;;;;;30.17;31.67;101469.47;4945858;28;45365;-69
2023/07/06 09:09:47;;;;;;;;;4.60;3.00;;;;;30.35;30.23;101470.47;4952133;28;45307;-70
2023/07/06 09:12:31;;;;;;;;;4.60;4.60;;;;;30.36;30.77;101451.31;4941994;28;47073;-70
2023/07/06 09:14:58;;;;;;;;;7.40;3.80;;;;;30.68;31.74;101470.69;4963335;28;45362;-70
2023/07/06 09:17:23;;;;;;;;;4.80;4.80;;;;;30.75;33.78;101464.84;4955458;28;45492;-70
2023/07/06 09:19:51;;;;;;;;;5.00;5.00;;;;;30.50;30.65;101464.25;4951781;28;45300;-70
2023/07/06 09:22:18;;;;;;;;;8.80;6.00;;;;;30.50;31.47;101461.53;4958436;28;46049;-69
2023/07/06 09:24:47;;;;;;;;;9.00;6.00;;;;;30.54;33.45;101471.34;4951748;28;45384;-69
2023/07/06 09:27:23;;;;;;;;;7.20;6.60;;;;;30.22;30.73;101468.34;4959987;28;45306;-69
2023/07/06 09:30:18;;;;;;;;;9.00;6.60;;;;;30.21;33.79;101465.63;4955864;28;45241;-70
2023/07/06 09:32:44;;;;;;;;;6.00;5.00;;;;;30.25;32.38;101468.19;4960314;28;46212;-69
2023/07/06 09:35:20;;;;;;;;;5.40;5.40;;;;;30.06;33.31;101456.34;4960760;28;45239;-69
2023/07/06 09:37:47;;;;;;;;;8.20;5.60;;;;;30.09;33.11;101467.09;4962320;28;45361;-69
2023/07/06 09:40:14;;;;;;;;;5.00;3.50;;;;;30.08;31.74;101462.56;4960507;28;45487;-69
2023/07/06 09:42:41;;;;;;;;;7.00;3.80;;;;;29.97;30.68;101460.38;4954354;28;45573;-69
2023/07/06 09:45:30;;;;;;;;;7.00;4.00;;;;;29.87;33.75;101450.84;4962397;28;45235;-70
2023/07/06 09:48:01;;;;;;;;;5.20;4.60;;;;;30.10;30.97;101449.75;4935810;28;45318;-69
2023/07/06 09:50:35;;;;;;;;;6.80;5.00;;;;;30.25;32.97;101448.19;4943277;28;45439;-69
2023/07/06 09:53:00;;;;;;;;;6.80;5.80;;;;;30.46;32.49;101440.81;4961387;28;46076;-69
2023/07/06 09:55:29;;;;;;;;;6.25;6.25;;;;;30.54;31.22;101450.41;4954416;28;45246;-69
2023/07/06 09:57:56;;;;;;;;;7.60;4.60;;;;;30.98;30.70;101454.66;4960609;28;45304;-70
2023/07/06 10:00:29;;;;;;;;;6.40;6.00;;;;;31.29;31.66;101456.69;4961426;28;45342;-70
2023/07/06 10:03:23;;;;;;;;;8.60;6.20;;;;;31.58;29.98;101449.69;4959603;28;45318;-70
2023/07/06 10:06:17;;;;;;;;;3.60;3.60;;;;;31.92;31.70;101442.44;4943918;28;45242;-70
2023/07/06 10:09:05;;;;;;;;;4.80;4.80;;;;;32.26;29.24;101451.50;4956369;28;45310;-70
2023/07/06 10:11:50;;;;;;;;;5.80;5.80;;;;;32.27;31.11;101456.91;4950463;28;46232;-69
2023/07/06 10:14:25;;;;;;;;;8.20;6.40;;;;;31.99;30.73;101448.47;4960267;28;45215;-70
2023/07/06 10:17:02;;;;;;;;;6.20;6.20;;;;;31.69;30.33;101445.50;4961068;28;45472;-69
2023/07/06 10:19:53;;;;;;;;;6.40;5.40;;;;;31.34;30.12;101442.75;4961947;28;45342;-69
2023/07/06 10:22:35;;;;;;;;;6.40;6.40;;;;;31.02;30.75;101444.44;4955296;28;45338;-69
2023/07/06 10:25:33;;;;;;;;;6.40;5.60;;;;;30.71;31.07;101444.09;4958718;28;46513;-69
2023/07/06 10:28:13;;;;;;;;;5.80;5.20;;;;;30.33;29.97;101435.06;4947440;28;45433;-69
2023/07/06 10:30:45;;;;;;;;;7.80;3.80;;;;;30.09;31.23;101427.06;4961754;28;45413;-69
2023/07/06 10:33:38;;;;;;;;;7.40;6.00;;;;;30.14;30.86;101442.31;4961374;28;46254;-70
2023/07/06 10:36:10;;;;;;;;;5.80;5.60;;;;;30.13;29.17;101438.72;4955878;28;45448;-69
2023/07/06 10:38:36;;;;;;;;;6.00;5.20;;;;;30.33;30.29;101430.50;4961262;28;45406;-70
2023/07/06 10:41:09;;;;;;;;;9.25;8.00;;;;;30.45;30.25;101436.34;4961416;28;45243;-69
2023/07/06 10:43:34;;;;;;;;;10.60;10.60;;;;;30.55;28.68;101432.16;4960712;28;45468;-70
2023/07/06 10:46:19;;;;;;;;;4.00;3.50;;;;;30.68;30.92;101424.28;4961484;28;46270;-69
2023/07/06 10:48:45;;;;;;;;;6.60;4.60;;;;;31.09;28.83;101421.31;4957632;28;45270;-71
2023/07/06 10:51:17;;;;;;;;;5.00;3.80;;;;;31.54;29.80;101430.84;4956196;28;45389;-70
2023/07/06 10:53:48;;;;;;;;;5.20;4.40;;;;;31.99;28.53;101432.94;4956406;28;45347;-70
2023/07/06 10:56:20;;;;;;;;;5.00;5.00;;;;;32.46;27.91;101417.56;4960754;28;45283;-69
2023/07/06 10:59:00;;;;;;;;;5.80;4.60;;;;;32.94;29.08;101438.44;4957017;28;45357;-70
2023/07/06 11:01:40;;;;;;;;;4.20;3.40;;;;;33.13;26.84;101420.94;4952144;28;45503;-70
2023/07/06 11:04:36;;;;;;;;;6.20;5.00;;;;;33.56;27.11;101438.41;4961250;28;45476;-70
2023/07/06 11:07:02;;;;;;;;;4.20;4.20;;;;;33.66;24.99;101430.47;4950036;28;46350;-70
2023/07/06 11:09:29;;;;;;;;;4.20;3.20;;;;;33.63;26.26;101422.44;4959575;28;45300;-70
2023/07/06 11:11:54;;;;;;;;;5.40;4.40;;;;;33.56;25.20;101426.56;4960634;28;45408;-69
2023/07/06 11:14:33;;;;;;;;;6.75;5.00;;;;;33.27;25.92;101425.56;4960888;28;45270;-69
2023/07/06 11:16:58;;;;;;;;;4.40;4.40;;;;;33.06;25.22;101423.16;4949265;28;46227;-69
2023/07/06 11:19:29;;;;;;;;;6.00;6.00;;;;;32.75;25.79;101426.81;4959954;28;45327;-69
2023/07/06 11:22:03;;;;;;;;;8.60;4.40;;;;;32.38;26.29;101426.19;4961284;28;45345;-69
2023/07/06 11:24:40;;;;;;;;;4.60;4.60;;;;;31.96;26.20;101416.69;4960985;28;45396;-70
2023/07/06 11:27:31;;;;;;;;;3.80;3.80;;;;;31.47;26.69;101413.88;4959287;28;45306;-70
2023/07/06 11:30:12;;;;;;;;;6.80;4.20;;;;;31.53;28.56;101409.91;4961208;28;45183;-70
2023/07/06 11:32:47;;;;;;;;;4.60;3.60;;;;;31.74;26.30;101411.50;4958811;28;45517;-70
2023/07/06 11:35:30;;;;;;;;;5.60;4.40;;;;;32.00;27.57;101404.59;4956277;28;45566;-70
2023/07/06 11:38:24;;;;;;;;;5.00;5.00;;;;;32.33;27.84;101403.66;4955150;28;45613;-70
2023/07/06 11:41:12;;;;;;;;;1.60;0.60;;;;;32.78;26.78;101414.81;4957818;28;45396;-70
2023/07/06 11:43:56;;;;;;;;;6.60;4.80;;;;;33.10;25.81;101410.16;4959458;28;45365;-70
2023/07/06 11:46:34;;;;;;;;;12.00;7.20;;;;;33.27;24.49;101406.38;4954492;28;45487;-70
2023/07/06 11:49:18;;;;;;;;;5.60;5.20;;;;;33.27;24.98;101409.13;4954190;28;45357;-70
2023/07/06 11:51:48;;;;;;;;;3.40;3.20;;;;;33.20;25.34;101408.63;4949867;28;45525;-70
2023/07/06 11:54:39;;;;;;;;;5.20;4.00;;;;;33.21;25.72;101403.03;4950924;28;45384;-70
2023/07/06 11:57:43;;;;;;;;;2.60;2.60;;;;;33.31;24.58;101389.66;4948997;28;45224;-71
2023/07/06 12:00:09;;;;;;;;;4.00;2.80;;;;;33.42;24.33;101389.88;4950783;28;45410;-71
2023/07/06 12:02:36;;;;;;;;;4.20;3.40;;;;;33.42;24.13;101384.41;4945084;28;45385;-71
2023/07/06 12:05:02;;;;;;;;;2.00;2.00;;;;;33.62;23.61;101390.53;4960049;28;45283;-70
2023/07/06 12:07:32;;;;;;;;;3.80;3.20;;;;;33.83;24.50;101394.66;4957958;28;45488;-70
2023/07/06 12:10:02;;;;;;;;;3.00;3.00;;;;;33.95;24.32;101383.88;4958798;28;45483;-70
2023/07/06 12:12:30;;;;;;;;;3.20;3.00;;;;;34.14;22.92;101365.22;4959092;28;45339;-70
2023/07/06 12:14:56;;;;;;;;;3.20;3.20;;;;;34.64;24.43;101384.84;4957632;28;45220;-71
2023/07/06 12:17:22;;;;;;;;;2.80;2.80;;;;;34.66;23.18;101367.28;4959506;28;45513;-70
2023/07/06 12:19:48;;;;;;;;;4.25;3.00;;;;;34.98;22.30;101384.31;4954173;28;45432;-70
2023/07/06 12:22:18;;;;;;;;;3.40;2.00;;;;;35.23;23.30;101378.97;4959619;28;45338;-70
2023/07/06 12:24:45;;;;;;;;;3.00;2.80;;;;;35.50;20.63;101373.41;4950888;28;45260;-70
2023/07/06 12:27:13;;;;;;;;;4.40;2.60;;;;;35.77;21.78;101376.06;4959522;28;45160;-71
2023/07/06 12:29:39;;;;;;;;;3.40;3.40;;;;;35.81;22.14;101369.34;4953302;28;45400;-70
2023/07/06 12:32:13;;;;;;;;;3.60;2.20;;;;;35.95;21.22;101380.19;4959445;28;45346;-71
2023/07/06 12:34:46;;;;;;;;;3.00;2.40;;;;;35.93;21.80;101371.16;4954198;28;45432;-70
2023/07/06 12:37:17;;;;;;;;;2.60;1.60;;;;;35.86;21.74;101369.88;4959664;28;45425;-71
2023/07/06 12:39:45;;;;;;;;;3.60;3.60;;;;;35.82;22.54;101354.56;4950054;28;46616;-70
2023/07/06 12:42:12;;;;;;;;;0.20;0.20;;;;;35.72;19.75;101359.88;4953818;28;46297;-70
2023/07/06 12:44:40;;;;;;;;;3.20;2.00;;;;;35.54;21.25;101358.41;4955304;28;45331;-70
2023/07/06 12:47:31;;;;;;;;;4.20;3.00;;;;;35.27;20.96;101353.06;4957181;28;45447;-70
2023/07/06 12:50:05;;;;;;;;;1.20;1.20;;;;;35.14;21.91;101336.53;4949189;28;47946;-71
2023/07/06 12:52:30;;;;;;;;;2.00;2.00;;;;;35.17;20.30;101331.69;4949491;28;45409;-71
2023/07/06 12:54:56;;;;;;;;;2.75;2.75;;;;;35.29;19.90;101342.78;4935542;28;45813;-71
2023/07/06 12:57:25;;;;;;;;;3.75;3.75;;;;;35.45;19.41;101345.34;4958467;28;45445;-71
2023/07/06 13:00:15;;;;;;;;;1.60;1.60;;;;;35.56;21.58;101335.34;4953540;28;46368;-71
2023/07/06 13:02:42;;;;;;;;;2.20;2.20;;;;;35.63;20.80;101324.81;4941655;28;45395;-71
2023/07/06 13:05:24;;;;;;;;;2.20;2.20;;;;;35.71;21.33;101333.38;4941707;28;45485;-71
2023/07/06 13:07:51;;;;;;;;;5.80;4.80;;;;;35.81;18.44;101339.06;4956688;28;45432;-70
2023/07/06 13:10:20;;;;;;;;;2.00;1.60;;;;;35.91;20.26;101331.91;4957662;28;45697;-71
2023/07/06 13:12:53;;;;;;;;;2.60;2.20;;;;;36.04;20.71;101334.59;4958409;28;45401;-71
2023/07/06 13:15:23;;;;;;;;;4.40;2.00;;;;;36.20;19.66;101328.88;4957388;28;45429;-71
2023/07/06 13:17:51;;;;;;;;;2.40;2.40;;;;;36.24;18.49;101312.00;4959415;28;45243;-71
2023/07/06 13:20:16;;;;;;;;;3.80;3.20;;;;;36.38;21.09;101318.31;4954147;28;46485;-71
2023/07/06 13:22:43;;;;;;;;;2.75;2.75;;;;;36.48;19.92;101328.53;4959292;28;45317;-71
2023/07/06 13:25:22;;;;;;;;;4.00;3.20;;;;;36.57;20.36;101328.84;4954798;28;45343;-70
2023/07/06 13:27:48;;;;;;;;;2.80;2.80;;;;;36.22;20.28;101310.38;4958460;28;45228;-71
2023/07/06 13:30:17;;;;;;;;;3.80;3.80;;;;;36.14;19.78;101301.81;4959159;28;45307;-71
2023/07/06 13:32:43;;;;;;;;;3.80;3.80;;;;;36.36;20.17;101312.94;4957713;28;45436;-71
2023/07/06 13:35:11;;;;;;;;;3.00;2.25;;;;;36.43;18.03;101307.84;4959554;28;45286;-70
2023/07/06 13:37:40;;;;;;;;;7.00;6.00;;;;;36.38;19.58;101310.94;4958971;28;45492;-69
2023/07/06 13:40:12;;;;;;;;;3.00;2.20;;;;;36.46;18.28;101300.22;4958751;28;45479;-70
2023/07/06 13:42:37;;;;;;;;;4.20;4.00;;;;;36.42;18.78;101284.94;4952621;28;45367;-70
2023/07/06 13:45:03;;;;;;;;;3.75;2.25;;;;;36.52;19.80;101288.75;4959135;28;45673;-73
2023/07/06 13:47:28;;;;;;;;;2.00;2.00;;;;;36.30;19.44;101275.75;4949196;28;45549;-73
2023/07/06 13:49:56;;;;;;;;;3.75;2.00;;;;;36.36;18.00;101282.66;4950886;28;45346;-73
2023/07/06 13:52:21;;;;;;;;;0.00;0.00;;;;;36.39;19.02;101290.69;4943591;28;45776;-72
2023/07/06 13:54:47;;;;;;;;;3.25;3.25;;;;;35.74;18.83;101280.88;4951017;28;45323;-72
2023/07/06 13:57:13;;;;;;;;;4.25;3.00;;;;;35.75;19.78;101282.63;4957648;28;45363;-72
2023/07/06 13:59:38;;;;;;;;;2.00;2.00;;;;;35.76;20.02;101281.63;4962016;28;46188;-73
2023/07/06 14:02:03;;;;;;;;;2.00;2.00;;;;;35.91;20.31;101286.97;4960049;28;45445;-72
2023/07/06 14:04:30;;;;;;;;;2.25;2.25;;;;;36.11;18.76;101283.66;4962549;28;45579;-72
2023/07/06 14:06:57;;;;;;;;;2.80;2.00;;;;;36.37;18.09;101281.66;4960017;28;45315;-73
2023/07/06 14:09:22;;;;;;;;;2.40;2.40;;;;;36.43;20.02;101274.78;4959439;28;45648;-72
2023/07/06 14:11:47;;;;;;;;;1.00;1.00;;;;;36.36;18.13;101266.13;4961344;28;45428;-72
2023/07/06 14:14:13;;;;;;;;;3.50;3.50;;;;;36.54;19.88;101271.25;4958685;28;45286;-72
2023/07/06 14:16:39;;;;;;;;;4.00;4.00;;;;;36.54;19.39;101272.13;4961618;28;45192;-73
2023/07/06 14:19:05;;;;;;;;;1.80;1.80;;;;;36.62;20.12;101275.16;4957990;28;45527;-72
2023/07/06 14:21:33;;;;;;;;;4.00;3.00;;;;;36.45;19.30;101270.06;4957967;28;45228;-72
2023/07/06 14:23:58;;;;;;;;;2.00;2.00;;;;;36.19;19.08;101253.66;4958997;28;45392;-72
2023/07/06 14:26:25;;;;;;;;;6.25;4.25;;;;;36.19;19.30;101280.31;4940407;28;45399;-72
2023/07/06 14:28:51;;;;;;;;;2.60;2.40;;;;;36.18;20.43;101267.53;4940706;28;46954;-73
2023/07/06 14:31:18;;;;;;;;;2.00;2.00;;;;;36.12;18.39;101268.00;4958461;28;45322;-73
2023/07/06 14:33:44;;;;;;;;;1.20;1.20;;;;;36.05;18.30;101271.22;4958369;28;45322;-72
2023/07/06 14:36:11;;;;;;;;;4.40;2.80;;;;;36.12;19.14;101270.75;4958857;28;45513;-72
2023/07/06 14:38:36;;;;;;;;;3.00;2.40;;;;;36.12;19.55;101266.13;4961450;28;45340;-73
2023/07/06 14:41:02;;;;;;;;;2.75;2.75;;;;;36.08;17.94;101260.00;4959081;28;45325;-73
2023/07/06 14:43:28;;;;;;;;;2.75;2.75;;;;;36.05;18.44;101260.22;4959993;28;45782;-72
2023/07/06 14:45:54;;;;;;;;;3.60;2.60;;;;;36.07;18.30;101262.84;4960969;28;45383;-72
2023/07/06 14:48:20;;;;;;;;;4.00;2.80;;;;;36.17;18.49;101265.78;4958498;28;46560;-73
2023/07/06 14:50:45;;;;;;;;;2.75;1.75;;;;;36.22;19.45;101258.06;4954908;28;45443;-72
2023/07/06 14:53:11;;;;;;;;;3.50;2.75;;;;;36.30;19.47;101269.38;4940154;28;45409;-72
2023/07/06 14:55:37;;;;;;;;;2.00;0.25;;;;;36.05;19.90;101257.47;4957817;28;45417;-72
2023/07/06 14:58:03;;;;;;;;;12.75;12.75;;;;;35.80;18.79;101268.53;4942384;28;45358;-70
2023/07/06 15:00:29;;;;;;;;;4.20;4.20;;;;;35.61;17.61;101249.78;4960552;28;45450;-71
2023/07/06 15:02:54;;;;;;;;;5.00;5.00;;;;;35.38;18.93;101243.19;4959493;28;45413;-70
2023/07/06 15:05:20;;;;;;;;;6.50;6.50;;;;;35.01;19.88;101242.16;4942467;28;45542;-71
2023/07/06 15:07:45;;;;;;;;;7.25;7.25;;;;;34.77;19.05;101234.69;4959964;28;46689;-71
2023/07/06 15:10:12;;;;;;;;;1.50;1.50;;;;;34.46;19.28;101238.69;4957962;28;45264;-71
2023/07/06 15:12:40;;;;;;;;;3.00;3.00;;;;;34.11;19.62;101222.75;4960442;28;45452;-71
2023/07/06 15:15:06;;;;;;;;;2.00;2.00;;;;;34.05;20.36;101234.16;4957390;28;45311;-71
2023/07/06 15:17:31;;;;;;;;;4.00;4.00;;;;;33.86;19.67;101232.63;4960623;28;45342;-71
2023/07/06 15:19:57;;;;;;;;;2.00;2.00;;;;;33.96;20.63;101221.03;4953127;28;46950;-71
2023/07/06 15:22:22;;;;;;;;;2.00;2.00;;;;;34.23;19.91;101238.41;4961142;28;45389;-71
2023/07/06 15:24:48;;;;;;;;;3.50;2.50;;;;;34.35;19.95;101230.31;4952940;28;45434;-71
2023/07/06 15:27:13;;;;;;;;;1.75;1.75;;;;;34.31;20.03;101219.53;4960494;28;45461;-71
2023/07/06 15:29:38;;;;;;;;;20.00;18.75;;;;;34.24;19.80;101207.22;4934861;28;45242;-72
2023/07/06 15:32:06;;;;;;;;;2.50;2.50;;;;;34.33;19.77;101215.81;4960563;28;45735;-72
2023/07/06 15:34:31;;;;;;;;;5.20;3.60;;;;;34.33;19.99;101211.19;4952007;28;45319;-73
2023/07/06 15:36:57;;;;;;;;;2.75;2.75;;;;;34.38;20.49;101216.38;4960403;28;46107;-73
2023/07/06 15:39:23;;;;;;;;;3.50;3.50;;;;;34.41;19.92;101224.38;4938247;28;45294;-70
2023/07/06 15:41:54;;;;;;;;;2.60;2.60;;;;;34.41;20.64;101219.78;4942609;28;45547;-73
2023/07/06 15:44:20;;;;;;;;;6.20;2.40;;;;;34.40;20.28;101208.91;4956691;28;45515;-71
2023/07/06 15:46:45;;;;;;;;;3.00;2.60;;;;;34.50;20.17;101208.13;4955141;28;45247;-71
2023/07/06 15:49:11;;;;;;;;;2.00;2.00;;;;;34.51;20.47;101211.78;4955899;28;47159;-70
2023/07/06 15:51:36;;;;;;;;;4.50;4.50;;;;;34.25;20.74;101197.97;4959231;28;46159;-70
2023/07/06 15:54:01;;;;;;;;;2.00;2.00;;;;;34.31;19.66;101194.84;4953154;28;45231;-71
2023/07/06 15:56:27;;;;;;;;;2.00;2.00;;;;;34.31;20.51;101186.59;4958029;28;45875;-71
2023/07/06 15:59:00;;;;;;;;;3.00;2.75;;;;;34.36;20.24;101186.25;4958506;28;45473;-71
2023/07/06 16:01:26;;;;;;;;;1.00;0.80;;;;;34.38;19.82;101191.66;4939617;28;45342;-71
2023/07/06 16:03:51;;;;;;;;;3.50;3.50;;;;;34.40;19.68;101189.69;4957812;28;45434;-71
2023/07/06 16:06:26;;;;;;;;;2.25;2.00;;;;;34.39;20.43;101182.44;4958921;28;46196;-71
2023/07/06 16:08:52;;;;;;;;;4.00;4.00;;;;;34.27;20.82;101170.44;4956285;28;45231;-71
2023/07/06 16:11:23;;;;;;;;;1.50;1.50;;;;;34.29;20.86;101183.09;4938589;28;45642;-71
2023/07/06 16:13:49;;;;;;;;;3.40;2.80;;;;;34.18;19.51;101160.13;4955950;28;45890;-70
2023/07/06 16:16:15;;;;;;;;;4.75;4.00;;;;;34.17;20.19;101172.06;4959156;28;45485;-70
2023/07/06 16:18:40;;;;;;;;;7.25;6.25;;;;;34.03;20.15;101173.88;4955506;28;45287;-71
2023/07/06 16:21:06;;;;;;;;;12.25;8.25;;;;;33.91;20.54;101177.44;4954931;28;45282;-70
2023/07/06 16:23:31;;;;;;;;;10.50;10.50;;;;;33.53;20.21;101174.53;4955451;28;45330;-70
2023/07/06 16:26:14;;;;;;;;;22.00;19.50;;;;;33.37;20.65;101178.25;4959396;28;46553;-70
2023/07/06 16:28:42;;;;;;;;;6.00;6.00;;;;;33.20;20.56;101181.22;4934417;28;45320;-70
2023/07/06 16:31:09;;;;;;;;;11.60;9.80;;;;;33.09;20.44;101167.31;4957456;28;45488;-71
2023/07/06 16:33:35;;;;;;;;;3.20;3.20;;;;;33.07;20.47;101177.50;4956893;28;45306;-71
2023/07/06 16:36:01;;;;;;;;;2.80;2.80;;;;;32.88;21.09;101147.63;4956393;28;45437;-72
2023/07/06 16:38:27;;;;;;;;;5.00;2.00;;;;;32.86;20.46;101168.75;4957931;28;45628;-70
2023/07/06 16:40:53;;;;;;;;;7.75;7.75;;;;;32.56;21.04;101172.44;4953828;28;45247;-70
2023/07/06 16:43:19;;;;;;;;;3.00;3.00;;;;;32.37;21.62;101166.31;4956487;28;45414;-70
2023/07/06 16:45:49;;;;;;;;;4.00;2.40;;;;;32.23;21.48;101175.34;4958799;28;45346;-70
2023/07/06 16:48:16;;;;;;;;;2.20;2.20;;;;;32.03;21.75;101171.94;4955566;28;45314;-70
2023/07/06 16:50:42;;;;;;;;;3.80;3.20;;;;;31.85;22.37;101178.50;4949129;28;45428;-70
2023/07/06 16:53:08;;;;;;;;;4.80;4.00;;;;;31.69;21.92;101172.16;4952281;28;45382;-70
2023/07/06 16:55:33;;;;;;;;;3.50;2.50;;;;;31.46;22.55;101166.19;4953078;28;45509;-69
2023/07/06 16:57:59;;;;;;;;;3.75;3.75;;;;;31.42;22.48;101168.22;4941208;28;45435;-69
2023/07/06 17:00:24;;;;;;;;;5.50;4.25;;;;;31.25;22.78;101165.50;4960066;28;45232;-70
2023/07/06 17:02:49;;;;;;;;;3.50;3.00;;;;;31.13;23.08;101171.66;4955399;28;50323;-69
2023/07/06 17:05:15;;;;;;;;;6.50;5.25;;;;;30.79;22.58;101162.56;4958517;28;45382;-69
2023/07/06 17:07:40;;;;;;;;;4.25;4.25;;;;;30.52;23.03;101151.28;4958872;28;45326;-69
2023/07/06 17:10:07;;;;;;;;;6.25;4.75;;;;;30.40;22.84;101157.41;4958953;28;45456;-69
2023/07/06 17:12:32;;;;;;;;;4.20;2.80;;;;;30.28;23.52;101157.09;4958169;28;45583;-69
2023/07/06 17:14:57;;;;;;;;;2.25;2.25;;;;;30.09;24.11;101157.13;4955235;28;45374;-70
2023/07/06 17:17:23;;;;;;;;;6.75;6.75;;;;;30.06;23.66;101161.88;4958867;28;48545;-70
2023/07/06 17:19:48;;;;;;;;;42.33;35.33;;;;;29.75;23.62;101166.16;4955057;28;45218;-69
2023/07/06 17:22:14;;;;;;;;;48.33;37.67;;;;;29.51;23.69;101157.28;4958925;28;45524;-69
2023/07/06 17:24:39;;;;;;;;;35.00;32.75;;;;;29.42;24.00;101169.53;4953661;28;51625;-69
2023/07/06 17:27:05;;;;;;;;;6.25;5.75;;;;;29.23;24.07;101163.19;4958481;28;45314;-69
2023/07/06 17:29:30;;;;;;;;;10.75;9.50;;;;;29.14;24.54;101163.66;4936226;28;45388;-69
2023/07/06 17:31:55;;;;;;;;;5.25;5.25;;;;;29.01;24.31;101145.13;4959130;28;45347;-70
2023/07/06 17:34:21;;;;;;;;;4.50;4.00;;;;;29.01;24.82;101166.88;4944460;28;47075;-69
2023/07/06 17:36:46;;;;;;;;;3.50;3.50;;;;;28.89;24.66;101158.44;4962040;28;45362;-71
2023/07/06 17:39:11;;;;;;;;;4.25;4.25;;;;;28.65;24.72;101146.81;4962599;28;45318;-69
2023/07/06 17:41:37;;;;;;;;;4.50;4.50;;;;;28.69;24.94;101162.06;4962437;28;45310;-69
2023/07/06 17:44:02;;;;;;;;;3.50;3.50;;;;;28.63;24.96;101162.34;4961427;28;45377;-70
2023/07/06 17:46:27;;;;;;;;;3.50;3.25;;;;;28.51;25.03;101153.81;4962253;28;45199;-69
2023/07/06 17:48:53;;;;;;;;;28.25;22.50;;;;;28.42;25.55;101156.00;4957711;28;45426;-69
2023/07/06 17:51:18;;;;;;;;;6.25;6.25;;;;;28.37;25.67;101158.03;4955508;28;45468;-70
2023/07/06 17:53:45;;;;;;;;;7.75;7.00;;;;;28.34;25.62;101161.75;4958183;28;45210;-70
2023/07/06 17:56:11;;;;;;;;;5.80;5.20;;;;;28.27;25.27;101158.44;4949583;28;45233;-71
2023/07/06 17:58:36;;;;;;;;;16.00;16.00;;;;;28.29;25.88;101159.25;4960228;28;45161;-71
2023/07/06 18:01:02;;;;;;;;;8.00;6.00;;;;;28.25;25.90;101149.47;4958793;28;45534;-70
2023/07/06 18:03:28;;;;;;;;;4.25;4.25;;;;;28.20;25.78;101147.91;4958134;28;45907;-69
2023/07/06 18:05:54;;;;;;;;;2.60;2.60;;;;;28.11;25.51;101149.19;4962271;28;45403;-70
2023/07/06 18:08:19;;;;;;;;;9.00;6.00;;;;;28.08;26.03;101141.16;4959144;28;45587;-70
2023/07/06 18:10:45;;;;;;;;;5.75;5.75;;;;;28.07;25.61;101147.56;4961552;28;45548;-69
2023/07/06 18:13:11;;;;;;;;;9.20;6.40;;;;;27.89;26.08;101133.78;4959812;28;45468;-70
2023/07/06 18:15:36;;;;;;;;;5.50;5.50;;;;;27.89;25.92;101147.38;4960393;28;45339;-70
2023/07/06 18:18:02;;;;;;;;;5.75;5.00;;;;;27.90;26.19;101159.16;4959913;28;45464;-69
2023/07/06 18:20:28;;;;;;;;;6.75;4.75;;;;;27.87;26.58;101151.13;4959179;28;45426;-69
2023/07/06 18:22:54;;;;;;;;;5.75;5.00;;;;;27.81;26.64;101146.84;4961728;28;46788;-72
2023/07/06 18:25:21;;;;;;;;;4.50;4.50;;;;;27.77;26.62;101147.88;4936386;28;45724;-71
2023/07/06 18:27:47;;;;;;;;;8.75;6.50;;;;;27.74;26.19;101153.44;4957713;28;45239;-71
2023/07/06 18:30:12;;;;;;;;;5.50;5.50;;;;;27.67;26.77;101147.38;4962034;28;45287;-72
2023/07/06 18:32:38;;;;;;;;;6.00;5.25;;;;;27.66;26.46;101159.16;4952953;28;46698;-70
2023/07/06 18:35:03;;;;;;;;;4.50;4.50;;;;;27.62;26.45;101162.97;4955592;28;45317;-70
2023/07/06 18:37:29;;;;;;;;;5.25;5.25;;;;;27.56;26.67;101151.47;4961177;28;45535;-70
2023/07/06 18:39:54;;;;;;;;;4.00;4.00;;;;;27.49;27.02;101141.81;4954110;28;45235;-70
2023/07/06 18:42:19;;;;;;;;;4.75;4.00;;;;;27.51;27.62;101161.66;4956980;28;46461;-71
2023/07/06 18:44:57;;;;;;;;;4.00;4.00;;;;;27.36;27.22;101149.56;4961025;28;45364;-70
2023/07/06 18:47:23;;;;;;;;;4.00;4.00;;;;;27.42;27.87;101160.19;4960635;28;45437;-70
2023/07/06 18:49:48;;;;;;;;;6.50;6.00;;;;;27.35;27.34;101159.53;4944219;28;45469;-71
2023/07/06 18:52:13;;;;;;;;;24.00;23.33;;;;;27.27;27.37;101166.22;4960801;28;45308;-70
2023/07/06 18:54:39;;;;;;;;;6.50;4.25;;;;;27.05;27.10;101139.00;4959744;28;45587;-70
2023/07/06 18:57:04;;;;;;;;;5.50;4.75;;;;;27.04;27.32;101158.94;4960509;28;47628;-70
2023/07/06 18:59:29;;;;;;;;;11.50;9.75;;;;;26.97;27.27;101161.91;4961648;28;45378;-70
2023/07/06 19:01:55;;;;;;;;;15.00;15.00;;;;;26.95;27.13;101162.91;4960870;28;45370;-70
2023/07/06 19:04:20;;;;;;;;;60.33;49.00;;;;;26.88;27.92;101166.75;4961241;28;45390;-70
2023/07/06 19:06:45;;;;;;;;;6.50;6.50;;;;;26.78;27.44;101160.81;4960828;28;45989;-71
2023/07/06 19:09:11;;;;;;;;;7.00;6.00;;;;;26.57;27.61;101127.22;4961261;28;45572;-71
2023/07/06 19:11:36;;;;;;;;;13.50;10.75;;;;;26.70;28.42;101162.94;4960596;28;45453;-70
2023/07/06 19:14:02;;;;;;;;;10.00;10.00;;;;;26.67;28.35;101160.34;4960981;28;45305;-71
2023/07/06 19:16:27;;;;;;;;;5.50;5.50;;;;;26.58;28.57;101156.13;4960910;28;45465;-70
2023/07/06 19:18:52;;;;;;;;;5.50;5.50;;;;;26.57;28.17;101162.47;4961118;28;45520;-70
2023/07/06 19:21:18;;;;;;;;;8.00;8.00;;;;;26.50;28.53;101152.78;4961009;28;45446;-70
2023/07/06 19:23:43;;;;;;;;;4.75;4.75;;;;;26.46;28.67;101161.94;4942648;28;54040;-70
2023/07/06 19:26:09;;;;;;;;;10.50;8.00;;;;;26.38;28.79;101159.50;4960871;28;45319;-70
2023/07/06 19:28:34;;;;;;;;;7.50;6.00;;;;;26.17;29.03;101134.06;4960588;28;45398;-71
2023/07/06 19:31:00;;;;;;;;;6.50;6.50;;;;;26.18;29.73;101146.66;4959429;28;47012;-70
2023/07/06 19:33:26;;;;;;;;;8.50;8.50;;;;;26.19;29.50;101158.41;4960603;28;45343;-69
2023/07/06 19:35:52;;;;;;;;;30.00;27.00;;;;;26.12;29.25;101168.56;4942726;28;45540;-70
2023/07/06 19:38:17;;;;;;;;;15.00;12.00;;;;;26.05;29.77;101178.72;4960298;28;45381;-70
2023/07/06 19:40:55;;;;;;;;;10.75;9.25;;;;;25.88;28.74;101160.34;4959061;28;46109;-71
2023/07/06 19:43:21;;;;;;;;;7.50;7.50;;;;;25.80;29.85;101158.78;4956800;28;45503;-70
2023/07/06 19:45:48;;;;;;;;;6.50;6.50;;;;;25.73;29.36;101165.34;4942632;28;45321;-71
2023/07/06 19:48:17;;;;;;;;;6.00;6.00;;;;;25.69;29.63;101169.97;4958196;28;45335;-69
2023/07/06 19:50:43;;;;;;;;;7.00;7.00;;;;;25.69;30.49;101186.22;4950829;28;45433;-70
2023/07/06 19:53:09;;;;;;;;;5.75;5.75;;;;;25.56;29.58;101168.59;4958422;28;45322;-70
2023/07/06 19:55:35;;;;;;;;;6.00;6.00;;;;;25.54;30.73;101175.88;4959517;28;45170;-70
2023/07/06 19:58:01;;;;;;;;;6.75;5.75;;;;;25.49;30.50;101189.56;4958806;28;45474;-70
2023/07/06 20:00:27;;;;;;;;;5.50;2.50;;;;;25.44;30.79;101196.94;4959096;28;45475;-70
2023/07/06 20:02:52;;;;;;;;;6.25;6.00;;;;;25.37;30.36;101198.94;4959904;28;45382;-70
2023/07/06 20:05:18;;;;;;;;;6.00;6.00;;;;;25.33;30.72;101199.09;4958292;28;45477;-70
2023/07/06 20:07:43;;;;;;;;;6.25;6.25;;;;;25.23;30.00;101190.34;4941868;28;46215;-69
2023/07/06 20:10:09;;;;;;;;;5.75;5.75;;;;;25.23;31.11;101203.88;4957346;28;46186;-70
2023/07/06 20:12:35;;;;;;;;;8.00;6.50;;;;;25.18;31.83;101211.28;4959502;28;45338;-69
2023/07/06 20:15:00;;;;;;;;;7.00;7.00;;;;;25.08;31.34;101207.91;4956481;28;45505;-70
2023/07/06 20:17:25;;;;;;;;;8.75;7.25;;;;;24.98;31.61;101203.69;4959788;28;45347;-69